Darstellungsparameter: Aktuell verwendete Einstellungen:
Skalierung der Graphiken ... ?
xyx+y,   Skalierungsfaktor:      Skalierung: Modus: x, Faktor: 1
Darstellungszeitraum ... ?
Vom - - bis: - -   Zeitraum: 21.01.2017 - 22.01.2017
Min/Max/Avg-Anzeige ... ?
Zeige MMA aktuell
Zeige MMA Monat
Zeige MMA alles
Zeige --A aktuell
Zeige --A Monat
Zeige --A alles
Keine MMA-Anzeige
MMA:
Average (ber die Originaldaten)
MMA-Basis: 21.01.2017 - 22.01.2017
Quicknavigation für Darstellung... ?
Tage:      1T, 2T, 3T, 5T -1T -2T -3T -5T +1T +2T +3T +5T
Wochen: 1W, 2W, 3W -1W -2W -3W +1W +2W +3W
Monate: 1M, 3M, 6M -1M -3M -6M +1M +3M +6M
Jahre:    1J, 3J, 5J, 10J -1J -3J -5J -10J +1J +3J +5J +10J
Nutze für die Darstellung ... ?
Originaldaten oder Mittelwerte auf ...
Stundenbasis Tagesbasis Wochenbasis
Monatsbasis Jahresbasis      Datenbasis: Original-Daten
Darstellen als:
Statistik (Auto) Statistik J:M      Darstellung:
Zur Graphik,    zurück zur Übersicht aller Sensoren.
 
Tabellarische Datenbersicht: ?
 
Sensor: Nr:Datum:Temp:Abs-Feuchte:Windchill:Wind:
Aussen-T/F 1 21-01-2017 00:00:00 -7.3 C 2.65 g/m*3 -7.3 C 0 km/h
2 21-01-2017 00:05:00 -7.2 C 2.67 g/m*3 -7.2 C 0 km/h
3 21-01-2017 00:10:00 -7.2 C 2.67 g/m*3 -7.2 C 0 km/h
4 21-01-2017 00:15:00 -7.2 C 2.67 g/m*3 -7.2 C 0 km/h
5 21-01-2017 00:20:00 -7.3 C 2.65 g/m*3 -7.3 C 0 km/h
6 21-01-2017 00:25:00 -7.3 C 2.65 g/m*3 -7.3 C 0 km/h
7 21-01-2017 00:30:00 -7.3 C 2.65 g/m*3 -7.3 C 1.6 km/h
8 21-01-2017 00:35:00 -7.3 C 2.65 g/m*3 -7.3 C 0 km/h
9 21-01-2017 00:40:00 -7.3 C 2.65 g/m*3 -7.3 C 0 km/h
10 21-01-2017 00:45:00 -7.3 C 2.65 g/m*3 -7.3 C 0 km/h
11 21-01-2017 00:50:00 -7.3 C 2.65 g/m*3 -7.3 C 0 km/h
12 21-01-2017 00:55:00 -7.4 C 2.63 g/m*3 -7.4 C 0 km/h
13 21-01-2017 01:00:00 -7.4 C 2.63 g/m*3 -7.4 C 0 km/h
14 21-01-2017 01:05:00 -7.3 C 2.68 g/m*3 -7.3 C 0 km/h
15 21-01-2017 01:10:00 -7.3 C 2.68 g/m*3 -7.3 C 0 km/h
16 21-01-2017 01:15:00 -7.2 C 2.7 g/m*3 -7.2 C 0 km/h
17 21-01-2017 01:20:00 -7.2 C 2.7 g/m*3 -7.2 C 0 km/h
18 21-01-2017 01:25:00 -7.3 C 2.65 g/m*3 -7.3 C 0 km/h
19 21-01-2017 01:30:00 -7.4 C 2.63 g/m*3 -7.4 C 0 km/h
20 21-01-2017 01:35:00 -7.4 C 2.63 g/m*3 -7.4 C 0 km/h
21 21-01-2017 01:40:00 -7.5 C 2.61 g/m*3 -7.5 C 0 km/h
22 21-01-2017 01:45:00 -7.6 C 2.59 g/m*3 -7.6 C 0 km/h
23 21-01-2017 01:50:00 -7.6 C 2.59 g/m*3 -7.6 C 0 km/h
24 21-01-2017 01:55:00 -7.7 C 2.57 g/m*3 -7.7 C 0 km/h
25 21-01-2017 02:00:00 -7.7 C 2.6 g/m*3 -7.7 C 0 km/h
Sensor: Nr:Datum:Temp:Abs-Feuchte:Windchill:Wind:
Aussen-T/F 26 21-01-2017 02:05:00 -7.6 C 2.62 g/m*3 -7.6 C 0 km/h
27 21-01-2017 02:10:00 -7.7 C 2.6 g/m*3 -7.7 C 0 km/h
28 21-01-2017 02:15:00 -7.6 C 2.62 g/m*3 -7.6 C 0 km/h
29 21-01-2017 02:20:00 -7.6 C 2.62 g/m*3 -7.6 C 0 km/h
30 21-01-2017 02:25:00 -7.7 C 2.6 g/m*3 -7.7 C 0 km/h
31 21-01-2017 02:30:00 -7.7 C 2.6 g/m*3 -7.7 C 0 km/h
32 21-01-2017 02:35:00 -7.7 C 2.6 g/m*3 -7.7 C 0 km/h
33 21-01-2017 02:40:00 -7.8 C 2.58 g/m*3 -7.8 C 0 km/h
34 21-01-2017 02:45:00 -7.8 C 2.58 g/m*3 -7.8 C 0 km/h
35 21-01-2017 02:50:00 -7.8 C 2.58 g/m*3 -7.8 C 0 km/h
36 21-01-2017 02:55:00 -7.9 C 2.56 g/m*3 -7.9 C 0 km/h
37 21-01-2017 03:00:00 -7.9 C 2.56 g/m*3 -7.9 C 0 km/h
38 21-01-2017 03:05:00 -8 C 2.54 g/m*3 -8 C 0 km/h
39 21-01-2017 03:10:00 -8.1 C 2.52 g/m*3 -8.1 C 0 km/h
40 21-01-2017 03:15:00 -8.1 C 2.52 g/m*3 -8.1 C 0 km/h
41 21-01-2017 03:20:00 -8.1 C 2.52 g/m*3 -8.1 C 0 km/h
42 21-01-2017 03:25:00 -8.1 C 2.52 g/m*3 -8.1 C 0 km/h
43 21-01-2017 03:30:00 -8.1 C 2.52 g/m*3 -8.1 C 0 km/h
44 21-01-2017 03:35:00 -8.1 C 2.52 g/m*3 -8.1 C 0 km/h
45 21-01-2017 03:40:00 -8.1 C 2.52 g/m*3 -8.1 C 0 km/h
46 21-01-2017 03:45:00 -8.1 C 2.52 g/m*3 -8.1 C 0 km/h
47 21-01-2017 03:50:00 -8.1 C 2.52 g/m*3 -8.1 C 0 km/h
48 21-01-2017 03:55:00 -8.2 C 2.51 g/m*3 -8.2 C 0 km/h
49 21-01-2017 04:00:00 -8.2 C 2.51 g/m*3 -8.2 C 0 km/h
50 21-01-2017 04:05:00 -8.2 C 2.51 g/m*3 -8.2 C 0 km/h
Sensor: Nr:Datum:Temp:Abs-Feuchte:Windchill:Wind:
Aussen-T/F 51 21-01-2017 04:10:00 -8.3 C 2.49 g/m*3 -8.3 C 0 km/h
52 21-01-2017 04:15:00 -8.3 C 2.49 g/m*3 -8.3 C 0 km/h
53 21-01-2017 04:20:00 -8.3 C 2.49 g/m*3 -8.3 C 0 km/h
54 21-01-2017 04:25:00 -8.3 C 2.49 g/m*3 -8.3 C 0 km/h
55 21-01-2017 04:30:00 -8.3 C 2.49 g/m*3 -8.3 C 0 km/h
56 21-01-2017 04:35:00 -8.3 C 2.49 g/m*3 -8.3 C 0 km/h
57 21-01-2017 04:40:00 -8.4 C 2.47 g/m*3 -8.4 C 0 km/h
58 21-01-2017 04:45:00 -8.4 C 2.47 g/m*3 -8.4 C 0 km/h
59 21-01-2017 04:50:00 -8.5 C 2.45 g/m*3 -8.5 C 0 km/h
60 21-01-2017 04:55:00 -8.6 C 2.43 g/m*3 -8.6 C 0 km/h
61 21-01-2017 05:00:00 -8.6 C 2.43 g/m*3 -8.6 C 0 km/h
62 21-01-2017 05:05:00 -8.6 C 2.43 g/m*3 -8.6 C 0 km/h
63 21-01-2017 05:10:00 -8.6 C 2.43 g/m*3 -8.6 C 0 km/h
64 21-01-2017 05:15:00 -8.6 C 2.43 g/m*3 -8.6 C 0 km/h
65 21-01-2017 05:20:00 -8.5 C 2.48 g/m*3 -8.5 C 0 km/h
66 21-01-2017 05:25:00 -8.4 C 2.5 g/m*3 -8.4 C 0 km/h
67 21-01-2017 05:30:00 -8.4 C 2.47 g/m*3 -8.4 C 0 km/h
68 21-01-2017 05:35:00 -8.5 C 2.45 g/m*3 -8.5 C 0 km/h
69 21-01-2017 05:40:00 -8.6 C 2.43 g/m*3 -8.6 C 0 km/h
70 21-01-2017 05:45:00 -8.6 C 2.43 g/m*3 -8.6 C 0 km/h
71 21-01-2017 05:50:00 -8.6 C 2.43 g/m*3 -8.6 C 0 km/h
72 21-01-2017 05:55:00 -8.6 C 2.43 g/m*3 -8.6 C 0 km/h
73 21-01-2017 06:00:00 -8.5 C 2.48 g/m*3 -8.5 C 0 km/h
74 21-01-2017 06:05:00 -8.5 C 2.48 g/m*3 -8.5 C 0 km/h
75 21-01-2017 06:10:00 -8.5 C 2.45 g/m*3 -8.5 C 0 km/h
Sensor: Nr:Datum:Temp:Abs-Feuchte:Windchill:Wind:
Aussen-T/F 76 21-01-2017 06:15:00 -8.6 C 2.43 g/m*3 -8.6 C 0 km/h
77 21-01-2017 06:20:00 -8.7 C 2.41 g/m*3 -8.7 C 0 km/h
78 21-01-2017 06:25:00 -8.7 C 2.41 g/m*3 -8.7 C 0 km/h
79 21-01-2017 06:30:00 -8.6 C 2.43 g/m*3 -8.6 C 0 km/h
80 21-01-2017 06:35:00 -8.7 C 2.41 g/m*3 -8.7 C 0 km/h
81 21-01-2017 06:40:00 -8.7 C 2.41 g/m*3 -8.7 C 0 km/h
82 21-01-2017 06:45:00 -8.7 C 2.41 g/m*3 -8.7 C 0 km/h
83 21-01-2017 10:10:00 -8.1 C 2.55 g/m*3 -8.1 C 0 km/h
84 21-01-2017 10:15:00 -7.9 C 2.59 g/m*3 -7.9 C 0 km/h
85 21-01-2017 10:20:00 -7.9 C 2.59 g/m*3 -7.9 C 0 km/h
86 21-01-2017 10:25:00 -7.8 C 2.61 g/m*3 -7.8 C 0 km/h
87 21-01-2017 10:30:00 -7.7 C 2.63 g/m*3 -7.7 C 0 km/h
88 21-01-2017 10:35:00 -7.7 C 2.63 g/m*3 -7.7 C 0 km/h
89 21-01-2017 10:40:00 -7.6 C 2.65 g/m*3 -7.6 C 0 km/h
90 21-01-2017 10:45:00 -7.5 C 2.67 g/m*3 -7.5 C 0 km/h
91 21-01-2017 10:50:00 -7.4 C 2.69 g/m*3 -7.4 C 0 km/h
92 21-01-2017 10:55:00 -7.3 C 2.71 g/m*3 -7.3 C 0 km/h
93 21-01-2017 11:00:00 -7.1 C 2.75 g/m*3 -7.1 C 0 km/h
94 21-01-2017 11:05:00 -7 C 2.77 g/m*3 -7 C 0 km/h
95 21-01-2017 11:10:00 -6.9 C 2.79 g/m*3 -6.9 C 0 km/h
96 21-01-2017 11:15:00 -6.8 C 2.81 g/m*3 -6.8 C 0 km/h
97 21-01-2017 11:20:00 -6.8 C 2.81 g/m*3 -6.8 C 0 km/h
98 21-01-2017 11:25:00 -6.7 C 2.83 g/m*3 -6.7 C 0 km/h
99 21-01-2017 11:30:00 -6.6 C 2.85 g/m*3 -6.6 C 0 km/h
100 21-01-2017 11:35:00 -6.5 C 2.87 g/m*3 -6.5 C 0 km/h
Sensor: Nr:Datum:Temp:Abs-Feuchte:Windchill:Wind:
Aussen-T/F 101 21-01-2017 11:40:00 -6.4 C 2.89 g/m*3 -6.4 C 0 km/h
102 21-01-2017 11:45:00 -6.3 C 2.91 g/m*3 -6.3 C 0 km/h
103 21-01-2017 11:50:00 -6.2 C 2.93 g/m*3 -6.2 C 0 km/h
104 21-01-2017 11:55:00 -6 C 2.98 g/m*3 -6 C 0 km/h
105 21-01-2017 12:00:00 -5.9 C 3.03 g/m*3 -5.9 C 0 km/h
106 21-01-2017 12:05:00 -5.7 C 3.07 g/m*3 -5.7 C 0 km/h
107 21-01-2017 12:10:00 -5.6 C 3.1 g/m*3 -5.6 C 0 km/h
108 21-01-2017 12:15:00 -5.4 C 3.14 g/m*3 -5.4 C 0 km/h
109 21-01-2017 12:20:00 -5.3 C 3.17 g/m*3 -5.3 C 1.6 km/h
110 21-01-2017 12:25:00 -5.1 C 3.21 g/m*3 -5.1 C 0 km/h
111 21-01-2017 12:30:00 -4.9 C 3.26 g/m*3 -4.9 C 0 km/h
112 21-01-2017 12:35:00 -4.8 C 3.28 g/m*3 -4.8 C 0 km/h
113 21-01-2017 12:40:00 -4.7 C 3.31 g/m*3 -4.7 C 0 km/h
114 21-01-2017 12:45:00 -4.6 C 3.33 g/m*3 -4.6 C 0 km/h
115 21-01-2017 12:50:00 -4.5 C 3.35 g/m*3 -4.5 C 1.6 km/h
116 21-01-2017 12:55:00 -4.4 C 3.38 g/m*3 -4.4 C 0 km/h
117 21-01-2017 13:00:00 -4.3 C 3.4 g/m*3 -4.3 C 1.6 km/h
118 21-01-2017 13:05:00 -4.2 C 3.43 g/m*3 -4.2 C 3.2 km/h
119 21-01-2017 13:10:00 -4 C 3.48 g/m*3 -4 C 1.6 km/h
120 21-01-2017 13:15:00 -3.9 C 3.5 g/m*3 -3.9 C 1.6 km/h
121 21-01-2017 13:20:00 -3.7 C 3.55 g/m*3 -3.7 C 3.2 km/h
122 21-01-2017 13:25:00 -3.6 C 3.58 g/m*3 -3.6 C 1.6 km/h
123 21-01-2017 13:30:00 -3.5 C 3.56 g/m*3 -3.5 C 1.6 km/h
124 21-01-2017 13:35:00 -3.4 C 3.59 g/m*3 -3.4 C 3.2 km/h
125 21-01-2017 13:40:00 -3.3 C 3.61 g/m*3 -3.3 C 3.2 km/h
Sensor: Nr:Datum:Temp:Abs-Feuchte:Windchill:Wind:
Aussen-T/F 126 21-01-2017 13:45:00 -3.1 C 3.67 g/m*3 -3.1 C 3.2 km/h
127 21-01-2017 13:50:00 -2.9 C 3.72 g/m*3 -2.9 C 3.2 km/h
128 21-01-2017 13:55:00 -2.8 C 3.71 g/m*3 -2.8 C 3.2 km/h
129 21-01-2017 14:00:00 -2.7 C 3.73 g/m*3 -2.7 C 3.2 km/h
130 21-01-2017 14:05:00 -2.6 C 3.76 g/m*3 -2.6 C 3.2 km/h
131 21-01-2017 14:10:00 -2.5 C 3.78 g/m*3 -2.5 C 3.2 km/h
132 21-01-2017 14:15:00 -2.3 C 3.84 g/m*3 -2.3 C 3.2 km/h
133 21-01-2017 14:20:00 -2.2 C 3.87 g/m*3 -2.2 C 3.2 km/h
134 21-01-2017 14:25:00 -2.1 C 3.89 g/m*3 -2.1 C 3.2 km/h
135 21-01-2017 14:30:00 -2 C 3.88 g/m*3 -2 C 3.2 km/h
136 21-01-2017 14:35:00 -1.9 C 3.91 g/m*3 -1.9 C 3.2 km/h
137 21-01-2017 14:40:00 -1.8 C 3.93 g/m*3 -1.8 C 3.2 km/h
138 21-01-2017 14:45:00 -1.8 C 3.89 g/m*3 -1.8 C 4.8 km/h
139 21-01-2017 14:50:00 -1.7 C 3.92 g/m*3 -1.7 C 3.2 km/h
140 21-01-2017 14:55:00 -1.6 C 3.94 g/m*3 -1.6 C 4.8 km/h
141 21-01-2017 15:00:00 -1.5 C 3.97 g/m*3 -1.5 C 4.8 km/h
142 21-01-2017 15:05:00 -1.4 C 4 g/m*3 -1.4 C 4.8 km/h
143 21-01-2017 15:10:00 -1.3 C 4.03 g/m*3 -1.3 C 4.8 km/h
144 21-01-2017 15:15:00 -1.3 C 3.98 g/m*3 -1.3 C 4.8 km/h
145 21-01-2017 15:20:00 -1.2 C 4.01 g/m*3 -3.57 C 6.4 km/h
146 21-01-2017 15:25:00 -1.2 C 4.01 g/m*3 -3.57 C 6.4 km/h
147 21-01-2017 15:30:00 -1.2 C 4.01 g/m*3 -3.57 C 6.4 km/h
148 21-01-2017 15:35:00 -1.2 C 4.01 g/m*3 -1.2 C 4.8 km/h
149 21-01-2017 15:40:00 -1.1 C 4 g/m*3 -1.1 C 4.8 km/h
150 21-01-2017 15:45:00 -1.1 C 4 g/m*3 -3.45 C 6.4 km/h
Sensor: Nr:Datum:Temp:Abs-Feuchte:Windchill:Wind:
Aussen-T/F 151 21-01-2017 15:50:00 -1.1 C 4 g/m*3 -3.45 C 6.4 km/h
152 21-01-2017 15:55:00 -1.1 C 4 g/m*3 -3.45 C 6.4 km/h
153 21-01-2017 16:00:00 -1.1 C 4 g/m*3 -3.45 C 6.4 km/h
154 21-01-2017 16:05:00 -1.1 C 4 g/m*3 -3.45 C 6.4 km/h
155 21-01-2017 16:10:00 -1.1 C 3.95 g/m*3 -3.45 C 6.4 km/h
156 21-01-2017 16:15:00 -1.2 C 3.92 g/m*3 -3.57 C 6.4 km/h
157 21-01-2017 16:20:00 -1.2 C 3.92 g/m*3 -3.57 C 6.4 km/h
158 21-01-2017 16:25:00 -1.2 C 3.92 g/m*3 -3.57 C 6.4 km/h
159 21-01-2017 16:30:00 -1.2 C 3.92 g/m*3 -3.57 C 6.4 km/h
160 21-01-2017 16:35:00 -1.3 C 3.9 g/m*3 -3.68 C 6.4 km/h
161 21-01-2017 16:40:00 -1.3 C 3.9 g/m*3 -3.68 C 6.4 km/h
162 21-01-2017 16:45:00 -1.3 C 3.9 g/m*3 -3.68 C 6.4 km/h
163 21-01-2017 16:50:00 -1.3 C 3.9 g/m*3 -3.68 C 6.4 km/h
164 21-01-2017 16:55:00 -1.3 C 3.9 g/m*3 -3.68 C 6.4 km/h
165 21-01-2017 17:00:00 -1.4 C 3.82 g/m*3 -3.8 C 6.4 km/h
166 21-01-2017 17:05:00 -1.5 C 3.84 g/m*3 -1.5 C 4.8 km/h
167 21-01-2017 17:10:00 -1.6 C 3.77 g/m*3 -4.03 C 6.4 km/h
168 21-01-2017 17:15:00 -1.6 C 3.77 g/m*3 -4.03 C 6.4 km/h
169 21-01-2017 17:20:00 -1.6 C 3.77 g/m*3 -1.6 C 4.8 km/h
170 21-01-2017 17:25:00 -1.7 C 3.75 g/m*3 -1.7 C 4.8 km/h
171 21-01-2017 17:30:00 -1.7 C 3.75 g/m*3 -4.15 C 6.4 km/h
172 21-01-2017 17:35:00 -1.8 C 3.72 g/m*3 -4.26 C 6.4 km/h
173 21-01-2017 17:40:00 -1.9 C 3.69 g/m*3 -1.9 C 4.8 km/h
174 21-01-2017 17:45:00 -2 C 3.67 g/m*3 -2 C 4.8 km/h
175 21-01-2017 17:50:00 -2.2 C 3.62 g/m*3 -2.2 C 1.6 km/h
Sensor: Nr:Datum:Temp:Abs-Feuchte:Windchill:Wind:
Aussen-T/F 176 21-01-2017 17:55:00 -2.3 C 3.63 g/m*3 -2.3 C 3.2 km/h
177 21-01-2017 18:00:00 -2.3 C 3.63 g/m*3 -2.3 C 4.8 km/h
178 21-01-2017 18:05:00 -2.4 C 3.61 g/m*3 -2.4 C 3.2 km/h
179 21-01-2017 18:10:00 -2.5 C 3.58 g/m*3 -2.5 C 3.2 km/h
180 21-01-2017 18:15:00 -2.7 C 3.53 g/m*3 -2.7 C 3.2 km/h
181 21-01-2017 18:20:00 -2.8 C 3.51 g/m*3 -2.8 C 1.6 km/h
182 21-01-2017 18:25:00 -2.9 C 3.48 g/m*3 -2.9 C 0 km/h
183 21-01-2017 18:30:00 -3.1 C 3.47 g/m*3 -3.1 C 0 km/h
184 21-01-2017 18:35:00 -3.2 C 3.45 g/m*3 -3.2 C 0 km/h
185 21-01-2017 18:40:00 -3.4 C 3.4 g/m*3 -3.4 C 0 km/h
186 21-01-2017 18:45:00 -3.6 C 3.35 g/m*3 -3.6 C 1.6 km/h
187 21-01-2017 18:50:00 -3.7 C 3.33 g/m*3 -3.7 C 0 km/h
188 21-01-2017 18:55:00 -3.8 C 3.3 g/m*3 -3.8 C 0 km/h
189 21-01-2017 19:00:00 -4.1 C 3.23 g/m*3 -4.1 C 0 km/h
190 21-01-2017 19:05:00 -4.2 C 3.21 g/m*3 -4.2 C 0 km/h
191 21-01-2017 19:10:00 -4.2 C 3.25 g/m*3 -4.2 C 0 km/h
192 21-01-2017 19:15:00 -4.2 C 3.25 g/m*3 -4.2 C 0 km/h
193 21-01-2017 19:20:00 -4.2 C 3.25 g/m*3 -4.2 C 0 km/h
194 21-01-2017 19:25:00 -4.3 C 3.22 g/m*3 -4.3 C 0 km/h
195 21-01-2017 19:30:00 -4.4 C 3.24 g/m*3 -4.4 C 1.6 km/h
196 21-01-2017 19:35:00 -4.3 C 3.26 g/m*3 -4.3 C 4.8 km/h
197 21-01-2017 19:40:00 -4.2 C 3.32 g/m*3 -4.2 C 3.2 km/h
198 21-01-2017 19:45:00 -4.2 C 3.28 g/m*3 -4.2 C 0 km/h
199 21-01-2017 19:50:00 -4.3 C 3.22 g/m*3 -4.3 C 1.6 km/h
200 21-01-2017 19:55:00 -4.5 C 3.18 g/m*3 -4.5 C 0 km/h
Sensor: Nr:Datum:Temp:Abs-Feuchte:Windchill:Wind:
Aussen-T/F 201 21-01-2017 20:00:00 -4.6 C 3.15 g/m*3 -4.6 C 1.6 km/h
202 21-01-2017 20:05:00 -4.6 C 3.19 g/m*3 -4.6 C 0 km/h
203 21-01-2017 20:10:00 -4.8 C 3.11 g/m*3 -4.8 C 0 km/h
204 21-01-2017 20:15:00 -4.8 C 3.14 g/m*3 -4.8 C 0 km/h
205 21-01-2017 20:20:00 -4.8 C 3.14 g/m*3 -4.8 C 0 km/h
206 21-01-2017 20:25:00 -5.1 C 3.04 g/m*3 -5.1 C 0 km/h
207 21-01-2017 20:30:00 -5.2 C 3.02 g/m*3 -5.2 C 0 km/h
208 21-01-2017 20:35:00 -5.3 C 3.03 g/m*3 -5.3 C 0 km/h
209 21-01-2017 20:40:00 -5.2 C 3.05 g/m*3 -5.2 C 0 km/h
210 21-01-2017 20:45:00 -5.3 C 3.03 g/m*3 -5.3 C 0 km/h
211 21-01-2017 20:50:00 -5.3 C 3.03 g/m*3 -5.3 C 0 km/h
212 21-01-2017 20:55:00 -5.4 C 3.04 g/m*3 -5.4 C 0 km/h
213 21-01-2017 21:00:00 -5.4 C 3.04 g/m*3 -5.4 C 0 km/h
214 21-01-2017 21:05:00 -5.4 C 3.01 g/m*3 -5.4 C 0 km/h
215 21-01-2017 21:10:00 -5.4 C 3.04 g/m*3 -5.4 C 0 km/h
216 21-01-2017 21:15:00 -5.5 C 3.02 g/m*3 -5.5 C 0 km/h
217 21-01-2017 21:20:00 -5.6 C 2.97 g/m*3 -5.6 C 0 km/h
218 21-01-2017 21:25:00 -5.7 C 2.95 g/m*3 -5.7 C 0 km/h
219 21-01-2017 21:30:00 -5.7 C 2.98 g/m*3 -5.7 C 0 km/h
220 21-01-2017 21:35:00 -5.8 C 2.92 g/m*3 -5.8 C 0 km/h
221 21-01-2017 21:40:00 -6 C 2.88 g/m*3 -6 C 0 km/h
222 21-01-2017 21:45:00 -6 C 2.91 g/m*3 -6 C 1.6 km/h
223 21-01-2017 21:50:00 -5.9 C 2.93 g/m*3 -5.9 C 0 km/h
224 21-01-2017 21:55:00 -6.1 C 2.89 g/m*3 -6.1 C 0 km/h
225 21-01-2017 22:00:00 -6.2 C 2.87 g/m*3 -6.2 C 0 km/h
Sensor: Nr:Datum:Temp:Abs-Feuchte:Windchill:Wind:
Aussen-T/F 226 21-01-2017 22:05:00 -6.2 C 2.87 g/m*3 -6.2 C 0 km/h
227 21-01-2017 22:10:00 -6.3 C 2.85 g/m*3 -6.3 C 0 km/h
228 21-01-2017 22:15:00 -6.3 C 2.85 g/m*3 -6.3 C 0 km/h
229 21-01-2017 22:20:00 -6.3 C 2.85 g/m*3 -6.3 C 0 km/h
230 21-01-2017 22:25:00 -6.3 C 2.85 g/m*3 -6.3 C 0 km/h
231 21-01-2017 22:30:00 -6.3 C 2.85 g/m*3 -6.3 C 0 km/h
232 21-01-2017 22:35:00 -6.2 C 2.9 g/m*3 -6.2 C 0 km/h
233 21-01-2017 22:40:00 -6.3 C 2.85 g/m*3 -6.3 C 0 km/h
234 21-01-2017 22:45:00 -6.4 C 2.83 g/m*3 -6.4 C 0 km/h
235 21-01-2017 22:50:00 -6.5 C 2.81 g/m*3 -6.5 C 0 km/h
236 21-01-2017 22:55:00 -6.6 C 2.79 g/m*3 -6.6 C 0 km/h
237 21-01-2017 23:00:00 -6.6 C 2.79 g/m*3 -6.6 C 0 km/h
238 21-01-2017 23:05:00 -6.7 C 2.77 g/m*3 -6.7 C 0 km/h
239 21-01-2017 23:10:00 -6.8 C 2.75 g/m*3 -6.8 C 0 km/h
240 21-01-2017 23:15:00 -6.8 C 2.75 g/m*3 -6.8 C 0 km/h
241 21-01-2017 23:20:00 -6.9 C 2.73 g/m*3 -6.9 C 0 km/h
242 21-01-2017 23:25:00 -6.9 C 2.73 g/m*3 -6.9 C 0 km/h
243 21-01-2017 23:30:00 -7 C 2.71 g/m*3 -7 C 0 km/h
244 21-01-2017 23:35:00 -6.9 C 2.76 g/m*3 -6.9 C 0 km/h
245 21-01-2017 23:40:00 -6.8 C 2.78 g/m*3 -6.8 C 0 km/h
246 21-01-2017 23:45:00 -6.8 C 2.78 g/m*3 -6.8 C 0 km/h
247 21-01-2017 23:50:00 -6.9 C 2.73 g/m*3 -6.9 C 0 km/h
248 21-01-2017 23:55:00 -7.1 C 2.69 g/m*3 -7.1 C 0 km/h
249 22-01-2017 00:00:00 -7.2 C 2.7 g/m*3 -7.2 C 0 km/h
250 22-01-2017 00:05:00 -7.3 C 2.65 g/m*3 -7.3 C 0 km/h
Sensor: Nr:Datum:Temp:Abs-Feuchte:Windchill:Wind:
Aussen-T/F 251 22-01-2017 00:10:00 -7.1 C 2.72 g/m*3 -7.1 C 0 km/h
252 22-01-2017 00:15:00 -6.9 C 2.79 g/m*3 -6.9 C 3.2 km/h
253 22-01-2017 00:20:00 -6.8 C 2.81 g/m*3 -6.8 C 1.6 km/h
254 22-01-2017 00:25:00 -6.7 C 2.8 g/m*3 -6.7 C 0 km/h
255 22-01-2017 00:30:00 -6.7 C 2.8 g/m*3 -6.7 C 0 km/h
256 22-01-2017 00:35:00 -6.8 C 2.78 g/m*3 -6.8 C 0 km/h
257 22-01-2017 00:40:00 -7 C 2.74 g/m*3 -7 C 0 km/h
258 22-01-2017 00:45:00 -7.2 C 2.7 g/m*3 -7.2 C 0 km/h
259 22-01-2017 00:50:00 -7.3 C 2.65 g/m*3 -7.3 C 0 km/h
260 22-01-2017 00:55:00 -7.5 C 2.61 g/m*3 -7.5 C 0 km/h
261 22-01-2017 01:00:00 -7.6 C 2.59 g/m*3 -7.6 C 0 km/h
262 22-01-2017 01:05:00 -7.7 C 2.6 g/m*3 -7.7 C 0 km/h
263 22-01-2017 01:10:00 -7.5 C 2.64 g/m*3 -7.5 C 0 km/h
264 22-01-2017 01:15:00 -7.4 C 2.66 g/m*3 -7.4 C 0 km/h
265 22-01-2017 01:20:00 -7.5 C 2.64 g/m*3 -7.5 C 0 km/h
266 22-01-2017 01:25:00 -7.6 C 2.62 g/m*3 -7.6 C 0 km/h
267 22-01-2017 01:30:00 -7.7 C 2.6 g/m*3 -7.7 C 0 km/h
268 22-01-2017 01:35:00 -7.7 C 2.6 g/m*3 -7.7 C 0 km/h
269 22-01-2017 01:40:00 -7.7 C 2.6 g/m*3 -7.7 C 0 km/h
270 22-01-2017 01:45:00 -7.6 C 2.65 g/m*3 -7.6 C 0 km/h
271 22-01-2017 01:50:00 -7.5 C 2.67 g/m*3 -7.5 C 0 km/h
272 22-01-2017 01:55:00 -7.4 C 2.69 g/m*3 -7.4 C 0 km/h
273 22-01-2017 02:00:00 -7.4 C 2.69 g/m*3 -7.4 C 0 km/h
274 22-01-2017 02:05:00 -7.6 C 2.62 g/m*3 -7.6 C 1.6 km/h
275 22-01-2017 02:10:00 -7.7 C 2.6 g/m*3 -7.7 C 0 km/h
Sensor: Nr:Datum:Temp:Abs-Feuchte:Windchill:Wind:
Aussen-T/F 276 22-01-2017 02:15:00 -7.7 C 2.6 g/m*3 -7.7 C 0 km/h
277 22-01-2017 02:20:00 -7.8 C 2.58 g/m*3 -7.8 C 0 km/h
278 22-01-2017 02:25:00 -8 C 2.54 g/m*3 -8 C 0 km/h
279 22-01-2017 02:30:00 -8.2 C 2.51 g/m*3 -8.2 C 0 km/h
280 22-01-2017 02:35:00 -8.2 C 2.51 g/m*3 -8.2 C 0 km/h
281 22-01-2017 02:40:00 -8.3 C 2.49 g/m*3 -8.3 C 0 km/h
282 22-01-2017 02:45:00 -8.3 C 2.49 g/m*3 -8.3 C 0 km/h
283 22-01-2017 02:50:00 -8.4 C 2.47 g/m*3 -8.4 C 0 km/h
284 22-01-2017 02:55:00 -8.6 C 2.43 g/m*3 -8.6 C 0 km/h
285 22-01-2017 03:00:00 -8.7 C 2.39 g/m*3 -8.7 C 0 km/h
286 22-01-2017 03:05:00 -8.8 C 2.37 g/m*3 -8.8 C 0 km/h
287 22-01-2017 03:10:00 -8.9 C 2.38 g/m*3 -8.9 C 0 km/h
288 22-01-2017 03:15:00 -9 C 2.36 g/m*3 -9 C 0 km/h
289 22-01-2017 03:20:00 -9 C 2.36 g/m*3 -9 C 0 km/h
290 22-01-2017 03:25:00 -9 C 2.36 g/m*3 -9 C 0 km/h
291 22-01-2017 03:30:00 -8.9 C 2.38 g/m*3 -8.9 C 0 km/h
292 22-01-2017 03:35:00 -9.1 C 2.34 g/m*3 -9.1 C 0 km/h
293 22-01-2017 03:40:00 -9.1 C 2.34 g/m*3 -9.1 C 0 km/h
294 22-01-2017 03:45:00 -9.1 C 2.34 g/m*3 -9.1 C 0 km/h
295 22-01-2017 03:50:00 -9.1 C 2.34 g/m*3 -9.1 C 0 km/h
296 22-01-2017 03:55:00 -9.1 C 2.34 g/m*3 -9.1 C 0 km/h
297 22-01-2017 04:00:00 -9 C 2.36 g/m*3 -9 C 0 km/h
298 22-01-2017 04:05:00 -8.8 C 2.42 g/m*3 -8.8 C 0 km/h
299 22-01-2017 04:10:00 -8.7 C 2.44 g/m*3 -8.7 C 0 km/h
300 22-01-2017 04:15:00 -8.7 C 2.44 g/m*3 -8.7 C 0 km/h
Sensor: Nr:Datum:Temp:Abs-Feuchte:Windchill:Wind:
Aussen-T/F 301 22-01-2017 04:20:00 -8.7 C 2.41 g/m*3 -8.7 C 0 km/h
302 22-01-2017 04:25:00 -8.7 C 2.41 g/m*3 -8.7 C 0 km/h
303 22-01-2017 04:30:00 -8.7 C 2.41 g/m*3 -8.7 C 1.6 km/h
304 22-01-2017 04:35:00 -8.8 C 2.4 g/m*3 -8.8 C 0 km/h
305 22-01-2017 04:40:00 -8.7 C 2.41 g/m*3 -8.7 C 1.6 km/h
306 22-01-2017 04:45:00 -8.7 C 2.41 g/m*3 -8.7 C 1.6 km/h
307 22-01-2017 04:50:00 -8.7 C 2.41 g/m*3 -8.7 C 0 km/h
308 22-01-2017 04:55:00 -8.7 C 2.41 g/m*3 -8.7 C 0 km/h
309 22-01-2017 05:00:00 -8.7 C 2.41 g/m*3 -8.7 C 0 km/h
310 22-01-2017 05:05:00 -8.9 C 2.38 g/m*3 -8.9 C 0 km/h
311 22-01-2017 05:10:00 -9.1 C 2.32 g/m*3 -9.1 C 0 km/h
312 22-01-2017 05:15:00 -9.2 C 2.3 g/m*3 -9.2 C 0 km/h
313 22-01-2017 05:20:00 -9.3 C 2.31 g/m*3 -9.3 C 0 km/h
314 22-01-2017 05:25:00 -9.3 C 2.31 g/m*3 -9.3 C 0 km/h
315 22-01-2017 05:30:00 -9.2 C 2.33 g/m*3 -9.2 C 0 km/h
316 22-01-2017 05:35:00 -9.2 C 2.33 g/m*3 -9.2 C 0 km/h
317 22-01-2017 05:40:00 -9.3 C 2.31 g/m*3 -9.3 C 0 km/h
318 22-01-2017 05:45:00 -9.3 C 2.31 g/m*3 -9.3 C 0 km/h
319 22-01-2017 05:50:00 -9.4 C 2.29 g/m*3 -9.4 C 0 km/h
320 22-01-2017 05:55:00 -9.5 C 2.25 g/m*3 -9.5 C 0 km/h
321 22-01-2017 06:00:00 -9.7 C 2.22 g/m*3 -9.7 C 0 km/h
322 22-01-2017 06:05:00 -9.8 C 2.2 g/m*3 -9.8 C 0 km/h
323 22-01-2017 06:10:00 -9.9 C 2.18 g/m*3 -9.9 C 0 km/h
324 22-01-2017 06:15:00 -10 C 2.17 g/m*3 -10 C 0 km/h
325 22-01-2017 06:20:00 -10.1 C 2.15 g/m*3 -10.1 C 0 km/h
Sensor: Nr:Datum:Temp:Abs-Feuchte:Windchill:Wind:
Aussen-T/F 326 22-01-2017 06:25:00 -10.1 C 2.15 g/m*3 -10.1 C 0 km/h
327 22-01-2017 06:30:00 -10.1 C 2.15 g/m*3 -10.1 C 0 km/h
328 22-01-2017 06:35:00 -10.1 C 2.15 g/m*3 -10.1 C 0 km/h
329 22-01-2017 06:40:00 -10.1 C 2.15 g/m*3 -10.1 C 0 km/h
330 22-01-2017 06:45:00 -10.1 C 2.17 g/m*3 -10.1 C 0 km/h
331 22-01-2017 06:50:00 -10.1 C 2.17 g/m*3 -10.1 C 0 km/h
332 22-01-2017 06:55:00 -9.9 C 2.21 g/m*3 -9.9 C 0 km/h
333 22-01-2017 07:00:00 -9.9 C 2.21 g/m*3 -9.9 C 0 km/h
334 22-01-2017 07:05:00 -9.8 C 2.22 g/m*3 -9.8 C 0 km/h
335 22-01-2017 07:10:00 -9.8 C 2.22 g/m*3 -9.8 C 0 km/h
336 22-01-2017 07:15:00 -9.8 C 2.22 g/m*3 -9.8 C 0 km/h
337 22-01-2017 07:20:00 -9.9 C 2.21 g/m*3 -9.9 C 0 km/h
338 22-01-2017 07:25:00 -10.1 C 2.15 g/m*3 -10.1 C 0 km/h
339 22-01-2017 07:30:00 -10.2 C 2.13 g/m*3 -10.2 C 0 km/h
340 22-01-2017 07:35:00 -10.3 C 2.12 g/m*3 -10.3 C 0 km/h
341 22-01-2017 09:55:00 -9.9 C 2.21 g/m*3 -9.9 C 0 km/h
342 22-01-2017 10:00:00 -9.8 C 2.22 g/m*3 -9.8 C 0 km/h
343 22-01-2017 10:05:00 -9.8 C 2.22 g/m*3 -9.8 C 0 km/h
344 22-01-2017 10:10:00 -9.7 C 2.24 g/m*3 -9.7 C 0 km/h
345 22-01-2017 10:15:00 -9.7 C 2.24 g/m*3 -9.7 C 0 km/h
346 22-01-2017 10:20:00 -9.7 C 2.24 g/m*3 -9.7 C 0 km/h
347 22-01-2017 10:25:00 -9.6 C 2.26 g/m*3 -9.6 C 0 km/h
348 22-01-2017 10:30:00 -9.6 C 2.26 g/m*3 -9.6 C 0 km/h
349 22-01-2017 10:35:00 -9.6 C 2.26 g/m*3 -9.6 C 0 km/h
350 22-01-2017 10:40:00 -9.5 C 2.27 g/m*3 -9.5 C 0 km/h
Sensor: Nr:Datum:Temp:Abs-Feuchte:Windchill:Wind:
Aussen-T/F 351 22-01-2017 10:45:00 -9.4 C 2.29 g/m*3 -9.4 C 0 km/h
352 22-01-2017 10:50:00 -9.3 C 2.31 g/m*3 -9.3 C 0 km/h
353 22-01-2017 10:55:00 -9.2 C 2.33 g/m*3 -9.2 C 0 km/h
354 22-01-2017 11:00:00 -9.1 C 2.34 g/m*3 -9.1 C 0 km/h
355 22-01-2017 11:05:00 -9 C 2.36 g/m*3 -9 C 0 km/h
356 22-01-2017 11:10:00 -8.8 C 2.4 g/m*3 -8.8 C 0 km/h
357 22-01-2017 11:15:00 -8.7 C 2.41 g/m*3 -8.7 C 0 km/h
358 22-01-2017 11:20:00 -8.6 C 2.46 g/m*3 -8.6 C 0 km/h
359 22-01-2017 11:25:00 -8.5 C 2.45 g/m*3 -8.5 C 0 km/h
360 22-01-2017 11:30:00 -8.4 C 2.47 g/m*3 -8.4 C 0 km/h
361 22-01-2017 11:35:00 -8.3 C 2.49 g/m*3 -8.3 C 0 km/h
362 22-01-2017 11:40:00 -8.3 C 2.49 g/m*3 -8.3 C 0 km/h
363 22-01-2017 11:45:00 -8.2 C 2.53 g/m*3 -8.2 C 0 km/h
364 22-01-2017 11:50:00 -8.1 C 2.55 g/m*3 -8.1 C 0 km/h
365 22-01-2017 11:55:00 -7.9 C 2.59 g/m*3 -7.9 C 0 km/h
366 22-01-2017 12:00:00 -7.8 C 2.61 g/m*3 -7.8 C 0 km/h
367 22-01-2017 12:05:00 -7.7 C 2.63 g/m*3 -7.7 C 0 km/h
368 22-01-2017 12:10:00 -7.5 C 2.67 g/m*3 -7.5 C 0 km/h
369 22-01-2017 12:15:00 -7.4 C 2.69 g/m*3 -7.4 C 0 km/h
370 22-01-2017 12:20:00 -7.3 C 2.71 g/m*3 -7.3 C 0 km/h
371 22-01-2017 12:25:00 -7.2 C 2.73 g/m*3 -7.2 C 0 km/h
372 22-01-2017 12:30:00 -7 C 2.77 g/m*3 -7 C 0 km/h
373 22-01-2017 12:35:00 -6.9 C 2.79 g/m*3 -6.9 C 1.6 km/h
374 22-01-2017 12:40:00 -6.8 C 2.81 g/m*3 -6.8 C 1.6 km/h
375 22-01-2017 12:45:00 -6.7 C 2.83 g/m*3 -6.7 C 1.6 km/h
Sensor: Nr:Datum:Temp:Abs-Feuchte:Windchill:Wind:
Aussen-T/F 376 22-01-2017 12:50:00 -6.7 C 2.83 g/m*3 -6.7 C 1.6 km/h
377 22-01-2017 12:55:00 -6.6 C 2.85 g/m*3 -6.6 C 3.2 km/h
378 22-01-2017 13:00:00 -6.4 C 2.89 g/m*3 -6.4 C 3.2 km/h
379 22-01-2017 13:05:00 -6.3 C 2.91 g/m*3 -6.3 C 1.6 km/h
380 22-01-2017 13:10:00 -6.2 C 2.93 g/m*3 -6.2 C 3.2 km/h
381 22-01-2017 13:15:00 -6.1 C 2.96 g/m*3 -6.1 C 3.2 km/h
382 22-01-2017 13:20:00 -6 C 2.98 g/m*3 -6 C 1.6 km/h
383 22-01-2017 13:25:00 -5.9 C 3 g/m*3 -5.9 C 3.2 km/h
384 22-01-2017 13:30:00 -5.8 C 3.02 g/m*3 -5.8 C 1.6 km/h
385 22-01-2017 13:35:00 -5.7 C 3.04 g/m*3 -5.7 C 0 km/h
386 22-01-2017 13:40:00 -5.6 C 3.06 g/m*3 -5.6 C 1.6 km/h
387 22-01-2017 13:45:00 -5.6 C 3.06 g/m*3 -5.6 C 3.2 km/h
388 22-01-2017 13:50:00 -5.4 C 3.11 g/m*3 -5.4 C 3.2 km/h
389 22-01-2017 13:55:00 -5.3 C 3.13 g/m*3 -5.3 C 1.6 km/h
390 22-01-2017 14:00:00 -5.3 C 3.13 g/m*3 -5.3 C 1.6 km/h
391 22-01-2017 14:05:00 -5.2 C 3.15 g/m*3 -5.2 C 3.2 km/h
392 22-01-2017 14:10:00 -5.1 C 3.18 g/m*3 -5.1 C 3.2 km/h
393 22-01-2017 14:15:00 -5 C 3.2 g/m*3 -5 C 3.2 km/h
394 22-01-2017 14:20:00 -4.9 C 3.22 g/m*3 -4.9 C 3.2 km/h
395 22-01-2017 14:25:00 -4.8 C 3.25 g/m*3 -4.8 C 3.2 km/h
396 22-01-2017 14:30:00 -4.7 C 3.27 g/m*3 -4.7 C 3.2 km/h
397 22-01-2017 14:35:00 -4.6 C 3.29 g/m*3 -4.6 C 3.2 km/h
398 22-01-2017 14:40:00 -4.5 C 3.32 g/m*3 -4.5 C 3.2 km/h
399 22-01-2017 14:45:00 -4.4 C 3.34 g/m*3 -4.4 C 3.2 km/h
400 22-01-2017 14:50:00 -4.4 C 3.31 g/m*3 -4.4 C 3.2 km/h
Sensor: Nr:Datum:Temp:Abs-Feuchte:Windchill:Wind:
Aussen-T/F 401 22-01-2017 14:55:00 -4.3 C 3.33 g/m*3 -4.3 C 3.2 km/h
402 22-01-2017 15:00:00 -4.3 C 3.33 g/m*3 -4.3 C 3.2 km/h
403 22-01-2017 15:05:00 -4.2 C 3.35 g/m*3 -4.2 C 3.2 km/h
404 22-01-2017 15:10:00 -4.1 C 3.38 g/m*3 -4.1 C 3.2 km/h
405 22-01-2017 15:15:00 -4.1 C 3.38 g/m*3 -4.1 C 3.2 km/h
406 22-01-2017 15:20:00 -4 C 3.4 g/m*3 -4 C 4.8 km/h
407 22-01-2017 15:25:00 -3.9 C 3.43 g/m*3 -3.9 C 3.2 km/h
408 22-01-2017 15:30:00 -3.9 C 3.43 g/m*3 -3.9 C 4.8 km/h
409 22-01-2017 15:35:00 -3.8 C 3.41 g/m*3 -3.8 C 3.2 km/h
410 22-01-2017 15:40:00 -3.8 C 3.41 g/m*3 -3.8 C 3.2 km/h
411 22-01-2017 15:45:00 -3.8 C 3.41 g/m*3 -3.8 C 3.2 km/h
412 22-01-2017 15:50:00 -3.7 C 3.44 g/m*3 -3.7 C 4.8 km/h
413 22-01-2017 15:55:00 -3.7 C 3.44 g/m*3 -3.7 C 4.8 km/h
414 22-01-2017 16:00:00 -3.7 C 3.44 g/m*3 -3.7 C 4.8 km/h
415 22-01-2017 16:05:00 -3.7 C 3.44 g/m*3 -3.7 C 4.8 km/h
416 22-01-2017 16:10:00 -3.7 C 3.44 g/m*3 -3.7 C 4.8 km/h
417 22-01-2017 16:15:00 -3.7 C 3.44 g/m*3 -3.7 C 4.8 km/h
418 22-01-2017 16:20:00 -3.7 C 3.44 g/m*3 -3.7 C 4.8 km/h
419 22-01-2017 16:25:00 -3.7 C 3.44 g/m*3 -3.7 C 4.8 km/h
420 22-01-2017 16:30:00 -3.6 C 3.46 g/m*3 -3.6 C 4.8 km/h
421 22-01-2017 16:35:00 -3.6 C 3.46 g/m*3 -3.6 C 4.8 km/h
422 22-01-2017 16:40:00 -3.6 C 3.43 g/m*3 -3.6 C 4.8 km/h
423 22-01-2017 16:45:00 -3.6 C 3.43 g/m*3 -3.6 C 4.8 km/h
424 22-01-2017 16:50:00 -3.7 C 3.4 g/m*3 -3.7 C 4.8 km/h
425 22-01-2017 16:55:00 -3.7 C 3.4 g/m*3 -3.7 C 4.8 km/h
Sensor: Nr:Datum:Temp:Abs-Feuchte:Windchill:Wind:
Aussen-T/F 426 22-01-2017 17:00:00 -3.7 C 3.4 g/m*3 -3.7 C 4.8 km/h
427 22-01-2017 17:05:00 -3.7 C 3.4 g/m*3 -3.7 C 3.2 km/h
428 22-01-2017 17:10:00 -3.8 C 3.34 g/m*3 -3.8 C 0 km/h
429 22-01-2017 17:15:00 -4 C 3.29 g/m*3 -4 C 3.2 km/h
430 22-01-2017 17:20:00 -4.1 C 3.27 g/m*3 -4.1 C 3.2 km/h
431 22-01-2017 17:25:00 -4.2 C 3.25 g/m*3 -4.2 C 4.8 km/h
432 22-01-2017 17:30:00 -4.1 C 3.31 g/m*3 -4.1 C 4.8 km/h
433 22-01-2017 17:35:00 -4.2 C 3.25 g/m*3 -4.2 C 0 km/h
434 22-01-2017 17:40:00 -4.4 C 3.16 g/m*3 -4.4 C 0 km/h
435 22-01-2017 17:45:00 -4.7 C 3.1 g/m*3 -4.7 C 0 km/h
436 22-01-2017 17:50:00 -4.9 C 3.05 g/m*3 -4.9 C 1.6 km/h
437 22-01-2017 17:55:00 -5 C 3.06 g/m*3 -5 C 0 km/h
438 22-01-2017 18:00:00 -4.9 C 3.12 g/m*3 -4.9 C 0 km/h
439 22-01-2017 18:05:00 -4.9 C 3.12 g/m*3 -4.9 C 0 km/h
440 22-01-2017 18:10:00 -4.9 C 3.12 g/m*3 -4.9 C 0 km/h
441 22-01-2017 18:15:00 -5 C 3.1 g/m*3 -5 C 1.6 km/h
442 22-01-2017 18:20:00 -5.2 C 3.05 g/m*3 -5.2 C 1.6 km/h
443 22-01-2017 18:25:00 -5.3 C 3.03 g/m*3 -5.3 C 3.2 km/h
444 22-01-2017 18:30:00 -5.3 C 3.03 g/m*3 -5.3 C 3.2 km/h
445 22-01-2017 18:35:00 -5.2 C 3.09 g/m*3 -5.2 C 3.2 km/h
446 22-01-2017 18:40:00 -5.3 C 3.07 g/m*3 -5.3 C 0 km/h
447 22-01-2017 18:45:00 -5.6 C 2.97 g/m*3 -5.6 C 0 km/h
448 22-01-2017 18:50:00 -5.7 C 2.95 g/m*3 -5.7 C 1.6 km/h
449 22-01-2017 18:55:00 -5.8 C 2.92 g/m*3 -5.8 C 0 km/h
450 22-01-2017 19:00:00 -5.8 C 2.92 g/m*3 -5.8 C 0 km/h
Sensor: Nr:Datum:Temp:Abs-Feuchte:Windchill:Wind:
Aussen-T/F 451 22-01-2017 19:05:00 -5.9 C 2.93 g/m*3 -5.9 C 0 km/h
452 22-01-2017 19:10:00 -6 C 2.91 g/m*3 -6 C 0 km/h
453 22-01-2017 19:15:00 -6.1 C 2.89 g/m*3 -6.1 C 0 km/h
454 22-01-2017 19:20:00 -6.1 C 2.89 g/m*3 -6.1 C 0 km/h
455 22-01-2017 19:25:00 -6.2 C 2.87 g/m*3 -6.2 C 0 km/h
456 22-01-2017 19:30:00 -6.3 C 2.85 g/m*3 -6.3 C 0 km/h
457 22-01-2017 19:35:00 -6.4 C 2.83 g/m*3 -6.4 C 0 km/h
458 22-01-2017 19:40:00 -6.4 C 2.83 g/m*3 -6.4 C 1.6 km/h
459 22-01-2017 19:45:00 -6.4 C 2.83 g/m*3 -6.4 C 0 km/h
460 22-01-2017 19:50:00 -6.4 C 2.83 g/m*3 -6.4 C 0 km/h
461 22-01-2017 19:55:00 -6.6 C 2.79 g/m*3 -6.6 C 0 km/h
462 22-01-2017 20:00:00 -6.6 C 2.79 g/m*3 -6.6 C 0 km/h
463 22-01-2017 20:05:00 -6.6 C 2.79 g/m*3 -6.6 C 0 km/h
464 22-01-2017 20:10:00 -6.6 C 2.79 g/m*3 -6.6 C 0 km/h
465 22-01-2017 20:15:00 -6.6 C 2.79 g/m*3 -6.6 C 0 km/h
466 22-01-2017 20:20:00 -6.7 C 2.77 g/m*3 -6.7 C 0 km/h
467 22-01-2017 20:25:00 -6.9 C 2.73 g/m*3 -6.9 C 0 km/h
468 22-01-2017 20:30:00 -7 C 2.71 g/m*3 -7 C 0 km/h
469 22-01-2017 20:35:00 -7.1 C 2.69 g/m*3 -7.1 C 0 km/h
470 22-01-2017 20:40:00 -7.3 C 2.65 g/m*3 -7.3 C 0 km/h
471 22-01-2017 20:45:00 -7.3 C 2.65 g/m*3 -7.3 C 0 km/h
472 22-01-2017 20:50:00 -7.4 C 2.63 g/m*3 -7.4 C 0 km/h
473 22-01-2017 20:55:00 -7.3 C 2.65 g/m*3 -7.3 C 0 km/h
474 22-01-2017 21:00:00 -7.4 C 2.63 g/m*3 -7.4 C 0 km/h
475 22-01-2017 21:05:00 -7.6 C 2.59 g/m*3 -7.6 C 0 km/h
Sensor: Nr:Datum:Temp:Abs-Feuchte:Windchill:Wind:
Aussen-T/F 476 22-01-2017 21:10:00 -7.6 C 2.59 g/m*3 -7.6 C 0 km/h
477 22-01-2017 21:15:00 -7.5 C 2.64 g/m*3 -7.5 C 0 km/h
478 22-01-2017 21:20:00 -7.4 C 2.66 g/m*3 -7.4 C 0 km/h
479 22-01-2017 21:25:00 -7.3 C 2.68 g/m*3 -7.3 C 0 km/h
480 22-01-2017 21:30:00 -7.5 C 2.64 g/m*3 -7.5 C 0 km/h
481 22-01-2017 21:35:00 -7.4 C 2.66 g/m*3 -7.4 C 0 km/h
482 22-01-2017 21:40:00 -7.5 C 2.64 g/m*3 -7.5 C 0 km/h
483 22-01-2017 21:45:00 -7.6 C 2.62 g/m*3 -7.6 C 0 km/h
484 22-01-2017 21:50:00 -7.7 C 2.6 g/m*3 -7.7 C 0 km/h
485 22-01-2017 21:55:00 -7.7 C 2.6 g/m*3 -7.7 C 0 km/h
486 22-01-2017 22:00:00 -7.8 C 2.58 g/m*3 -7.8 C 0 km/h
487 22-01-2017 22:05:00 -7.9 C 2.56 g/m*3 -7.9 C 0 km/h
488 22-01-2017 22:10:00 -8 C 2.54 g/m*3 -8 C 0 km/h
489 22-01-2017 22:15:00 -8.1 C 2.52 g/m*3 -8.1 C 0 km/h
490 22-01-2017 22:20:00 -8.1 C 2.52 g/m*3 -8.1 C 0 km/h
491 22-01-2017 22:25:00 -8.1 C 2.52 g/m*3 -8.1 C 0 km/h
492 22-01-2017 22:30:00 -8.2 C 2.51 g/m*3 -8.2 C 0 km/h
493 22-01-2017 22:35:00 -8.2 C 2.51 g/m*3 -8.2 C 0 km/h
494 22-01-2017 22:40:00 -8.1 C 2.52 g/m*3 -8.1 C 0 km/h
495 22-01-2017 22:45:00 -8.1 C 2.55 g/m*3 -8.1 C 0 km/h
496 22-01-2017 22:50:00 -7.9 C 2.59 g/m*3 -7.9 C 0 km/h
497 22-01-2017 22:55:00 -7.7 C 2.63 g/m*3 -7.7 C 3.2 km/h
498 22-01-2017 23:00:00 -7.6 C 2.65 g/m*3 -7.6 C 0 km/h
499 22-01-2017 23:05:00 -7.7 C 2.6 g/m*3 -7.7 C 0 km/h
500 22-01-2017 23:10:00 -7.7 C 2.6 g/m*3 -7.7 C 0 km/h
Sensor: Nr:Datum:Temp:Abs-Feuchte:Windchill:Wind:
Aussen-T/F 501 22-01-2017 23:15:00 -7.8 C 2.58 g/m*3 -7.8 C 0 km/h
502 22-01-2017 23:20:00 -8 C 2.54 g/m*3 -8 C 0 km/h
503 22-01-2017 23:25:00 -8.1 C 2.52 g/m*3 -8.1 C 3.2 km/h
504 22-01-2017 23:30:00 -8.2 C 2.51 g/m*3 -8.2 C 3.2 km/h
505 22-01-2017 23:35:00 -8.2 C 2.51 g/m*3 -8.2 C 0 km/h
506 22-01-2017 23:40:00 -8.2 C 2.51 g/m*3 -8.2 C 0 km/h
507 22-01-2017 23:45:00 -8.3 C 2.49 g/m*3 -8.3 C 0 km/h
508 22-01-2017 23:50:00 -8.4 C 2.47 g/m*3 -8.4 C 0 km/h
509 22-01-2017 23:55:00 -8.3 C 2.49 g/m*3 -8.3 C 4.8 km/h

Legende:
   Min
   Max


Maximal/Minimal-Werte vom 21.01.2017 - 22.01.2017

Sensor Min Max Avg
Temp
(Aussen-T/F)
-10.6 °C
22-01-2017  07:55:00
-1.1 °C
21-01-2017  15:40:00
-6.72 °C
Abs-Feuchte
(Aussen-T/F)
2.12 g/m*3
22-01-2017  07:35:00
4.03 g/m*3
21-01-2017  15:10:00
2.87 g/m*3
Windchill
(Aussen-T/F)
-10.3 C
22-01-2017  07:35:00
-1.1 C
21-01-2017  15:40:00
-6.47 C

Die Daten stammen von einer Davis Vantage Pro 2 Wetter-Station und werden unter Linux mit der Software wview2wettercgi und aufbereitet. Alle Angaben erfolgen ohne Gewähr für ihre Vollständigkeit oder Richtigkeit.
Kontakt: Rainer Krienke krienke@uni-koblenz.de . Meine Webseiten an der Uni Koblenz oder privat.
Version: $Revision: 0.78 $